createdAt,value
2023-01-17T00:01:08.097Z,57.45
2023-01-17T00:03:10.046Z,57.68
2023-01-17T00:05:30.675Z,57.69
2023-01-17T00:08:02.036Z,58.10
2023-01-17T00:10:13.266Z,57.56
2023-01-17T00:12:15.158Z,57.69
2023-01-17T00:14:17.127Z,57.41
2023-01-17T00:16:18.989Z,57.16
2023-01-17T00:18:21.381Z,57.00
2023-01-17T00:20:44.483Z,57.11
2023-01-17T00:23:04.954Z,57.01
2023-01-17T00:25:36.175Z,57.12
2023-01-17T00:27:38.120Z,57.07
2023-01-17T00:29:40.265Z,57.01
2023-01-17T00:31:42.125Z,56.77
2023-01-17T00:33:44.093Z,56.71
2023-01-17T00:35:46.306Z,56.97
2023-01-17T00:37:48.358Z,57.01
2023-01-17T00:39:50.157Z,56.84
2023-01-17T00:41:52.255Z,57.17
2023-01-17T00:44:12.865Z,57.06
2023-01-17T00:46:34.053Z,57.35
2023-01-17T00:48:55.400Z,56.96
2023-01-17T00:51:15.750Z,57.05
2023-01-17T00:53:36.304Z,56.96
2023-01-17T00:55:56.628Z,56.83
2023-01-17T00:58:17.212Z,56.76
2023-01-17T01:00:37.895Z,56.82
2023-01-17T01:02:58.929Z,56.66
2023-01-17T01:05:19.432Z,57.05
2023-01-17T01:07:41.112Z,57.06
2023-01-17T01:10:01.845Z,57.10
2023-01-17T01:12:22.448Z,57.12
2023-01-17T01:14:43.065Z,57.45
2023-01-17T01:17:03.993Z,57.58
2023-01-17T01:19:24.580Z,57.68
2023-01-17T01:21:45.082Z,58.00
2023-01-17T01:24:05.741Z,58.21
2023-01-17T01:26:26.424Z,58.50
2023-01-17T01:28:47.067Z,58.90
2023-01-17T01:31:07.512Z,58.78
2023-01-17T01:33:20.687Z,58.94
2023-01-17T01:35:23.445Z,59.18
2023-01-17T01:37:25.298Z,58.94
2023-01-17T01:39:27.301Z,58.77
2023-01-17T01:41:29.084Z,58.91
2023-01-17T01:43:54.535Z,59.30
2023-01-17T01:45:58.258Z,59.18
2023-01-17T01:48:22.796Z,59.67
2023-01-17T01:50:24.701Z,59.21
2023-01-17T01:52:30.862Z,59.26
2023-01-17T01:54:42.121Z,59.38
2023-01-17T01:56:45.614Z,58.98
2023-01-17T01:58:52.548Z,59.48
2023-01-17T02:00:54.587Z,59.58
2023-01-17T02:03:01.393Z,59.36
2023-01-17T02:05:04.815Z,59.50
2023-01-17T02:07:12.809Z,59.73
2023-01-17T02:09:17.637Z,59.20
2023-01-17T02:11:19.770Z,59.11
2023-01-17T02:13:21.650Z,59.12
2023-01-17T02:15:31.677Z,58.84
2023-01-17T02:18:11.410Z,59.32
2023-01-17T02:20:28.713Z,59.18
2023-01-17T02:23:01.563Z,58.92
2023-01-17T02:25:09.626Z,58.66
2023-01-17T02:27:26.003Z,58.53
2023-01-17T02:30:03.083Z,58.72
2023-01-17T02:32:18.706Z,58.91
2023-01-17T02:34:33.056Z,59.06
2023-01-17T02:36:46.067Z,58.84
2023-01-17T02:38:59.405Z,59.02
2023-01-17T02:41:15.716Z,59.50
2023-01-17T02:43:20.196Z,59.31
2023-01-17T02:45:23.130Z,59.80
2023-01-17T02:47:28.422Z,59.96
2023-01-17T02:49:32.479Z,59.90
2023-01-17T02:51:39.016Z,60.06
2023-01-17T02:53:50.100Z,60.76
2023-01-17T02:56:35.819Z,60.76
2023-01-17T02:58:54.793Z,60.32
2023-01-17T03:01:25.372Z,60.47
2023-01-17T03:04:00.804Z,60.06
2023-01-17T03:06:11.652Z,59.99
2023-01-17T03:08:14.696Z,59.89
2023-01-17T03:10:19.699Z,59.89
2023-01-17T03:12:21.910Z,59.72
2023-01-17T03:14:24.039Z,59.35
2023-01-17T03:16:28.998Z,59.56
2023-01-17T03:18:31.153Z,59.71
2023-01-17T03:20:33.617Z,59.20
2023-01-17T03:22:35.587Z,59.01
2023-01-17T03:24:37.563Z,59.35
2023-01-17T03:26:39.441Z,59.24
2023-01-17T03:28:41.433Z,59.28
2023-01-17T03:30:43.996Z,58.90
2023-01-17T03:32:46.143Z,58.95
2023-01-17T03:34:50.101Z,58.71
2023-01-17T03:36:52.139Z,58.86
2023-01-17T03:38:54.478Z,58.65
2023-01-17T03:40:56.687Z,58.38
2023-01-17T03:42:58.802Z,57.97
2023-01-17T03:45:00.829Z,58.46
2023-01-17T03:47:02.835Z,57.99
2023-01-17T03:49:04.802Z,58.40
2023-01-17T03:51:06.873Z,58.46
2023-01-17T03:53:08.872Z,58.22
2023-01-17T03:55:11.156Z,58.24
2023-01-17T03:57:13.010Z,58.31
2023-01-17T03:59:15.361Z,58.39
2023-01-17T04:01:17.515Z,58.25
2023-01-17T04:03:19.472Z,58.08
2023-01-17T04:05:21.464Z,58.11
2023-01-17T04:07:24.818Z,58.45
2023-01-17T04:09:26.784Z,58.03
2023-01-17T04:11:28.772Z,58.30
2023-01-17T04:13:30.699Z,58.37
2023-01-17T04:15:33.579Z,58.15
2023-01-17T04:17:35.623Z,58.02
2023-01-17T04:19:37.760Z,58.04
2023-01-17T04:21:39.813Z,58.05
2023-01-17T04:23:41.861Z,58.08
2023-01-17T04:25:44.114Z,58.35
2023-01-17T04:27:46.118Z,58.22
2023-01-17T04:29:47.952Z,58.12
2023-01-17T04:31:49.998Z,57.96
2023-01-17T04:33:52.002Z,58.20
2023-01-17T04:35:54.746Z,58.71
2023-01-17T04:37:56.701Z,58.54
2023-01-17T04:39:58.698Z,58.59
2023-01-17T04:42:03.029Z,58.90
2023-01-17T04:44:05.286Z,58.76
2023-01-17T04:46:10.259Z,58.79
2023-01-17T04:48:13.104Z,58.85
2023-01-17T04:50:15.428Z,58.93
2023-01-17T04:52:19.784Z,58.59
2023-01-17T04:54:21.692Z,58.68
2023-01-17T04:56:23.952Z,58.96
2023-01-17T04:58:26.678Z,58.85
2023-01-17T05:00:28.705Z,58.92
2023-01-17T05:02:30.902Z,59.48
2023-01-17T05:04:32.752Z,59.48
2023-01-17T05:06:35.228Z,58.99
2023-01-17T05:08:37.222Z,58.79
2023-01-17T05:10:39.598Z,59.39
2023-01-17T05:12:41.481Z,59.16
2023-01-17T05:14:43.415Z,58.92
2023-01-17T05:16:45.731Z,59.73
2023-01-17T05:18:52.602Z,59.32
2023-01-17T05:20:54.968Z,58.80
2023-01-17T05:22:59.161Z,58.57
2023-01-17T05:25:01.189Z,58.69
2023-01-17T05:27:04.062Z,58.85
2023-01-17T05:29:06.253Z,58.75
2023-01-17T05:31:08.345Z,58.76
2023-01-17T05:33:10.715Z,58.55
2023-01-17T05:35:12.844Z,58.28
2023-01-17T05:37:14.965Z,58.57
2023-01-17T05:39:17.010Z,58.58
2023-01-17T05:41:19.079Z,58.85
2023-01-17T05:43:22.245Z,58.94
2023-01-17T05:45:27.756Z,59.12
2023-01-17T05:47:29.629Z,59.31
2023-01-17T05:49:31.575Z,59.37
2023-01-17T05:51:33.629Z,59.51
2023-01-17T05:53:35.960Z,60.33
2023-01-17T05:55:38.675Z,60.02
2023-01-17T05:57:40.787Z,61.03
2023-01-17T05:59:42.828Z,61.16
2023-01-17T06:01:44.731Z,60.95
2023-01-17T06:03:46.641Z,61.56
2023-01-17T06:05:48.684Z,61.22
2023-01-17T06:07:51.064Z,61.16
2023-01-17T06:09:53.026Z,61.45
2023-01-17T06:11:55.048Z,61.48
2023-01-17T06:13:57.093Z,62.06
2023-01-17T06:16:03.021Z,62.61
2023-01-17T06:18:10.859Z,62.91
2023-01-17T06:20:13.455Z,62.18
2023-01-17T06:22:15.397Z,62.00
2023-01-17T06:24:17.629Z,62.05
2023-01-17T06:26:19.782Z,62.32
2023-01-17T06:28:23.258Z,61.85
2023-01-17T06:30:25.361Z,62.29
2023-01-17T06:32:27.269Z,62.46
2023-01-17T06:34:29.447Z,62.06
2023-01-17T06:36:33.432Z,62.86
2023-01-17T06:38:35.399Z,62.34
2023-01-17T06:40:37.482Z,62.85
2023-01-17T06:42:39.528Z,62.91
2023-01-17T06:44:41.453Z,63.13
2023-01-17T06:46:45.086Z,62.67
2023-01-17T06:48:48.808Z,62.74
2023-01-17T06:50:50.998Z,63.00
2023-01-17T06:53:04.399Z,62.83
2023-01-17T06:55:07.416Z,63.21
2023-01-17T06:57:09.267Z,62.35
2023-01-17T06:59:11.231Z,62.20
2023-01-17T07:01:13.473Z,62.61
2023-01-17T07:03:25.723Z,62.24
2023-01-17T07:05:28.654Z,62.55
2023-01-17T07:07:33.815Z,62.41
2023-01-17T07:09:36.131Z,62.51
2023-01-17T07:11:38.117Z,62.42
2023-01-17T07:13:40.645Z,62.25
2023-01-17T07:15:44.839Z,61.76
2023-01-17T07:17:47.410Z,61.49
2023-01-17T07:19:49.599Z,61.13
2023-01-17T07:21:53.358Z,61.36
2023-01-17T07:23:55.663Z,61.63
2023-01-17T07:25:59.798Z,61.42
2023-01-17T07:28:01.905Z,61.72
2023-01-17T07:30:04.912Z,61.39
2023-01-17T07:32:08.970Z,61.06
2023-01-17T07:34:11.122Z,61.41
2023-01-17T07:36:13.117Z,61.62
2023-01-17T07:38:17.696Z,61.42
2023-01-17T07:40:22.402Z,61.03
2023-01-17T07:42:24.658Z,60.81
2023-01-17T07:44:28.798Z,60.90
2023-01-17T07:46:30.780Z,60.67
2023-01-17T07:48:32.863Z,60.51
2023-01-17T07:50:34.855Z,61.01
2023-01-17T07:52:36.939Z,60.70
2023-01-17T07:54:39.042Z,60.29
2023-01-17T07:56:45.616Z,60.08
2023-01-17T07:58:48.885Z,60.19
2023-01-17T08:00:51.078Z,60.16
2023-01-17T08:03:02.170Z,60.07
2023-01-17T08:05:04.492Z,60.16
2023-01-17T08:07:07.502Z,60.31
2023-01-17T08:09:09.753Z,59.87
2023-01-17T08:11:12.180Z,59.92
2023-01-17T08:13:14.292Z,59.83
2023-01-17T08:15:17.910Z,59.31
2023-01-17T08:17:20.703Z,59.56
2023-01-17T08:19:22.983Z,59.88
2023-01-17T08:21:25.129Z,59.83
2023-01-17T08:23:27.366Z,59.44
2023-01-17T08:25:29.371Z,59.53
2023-01-17T08:27:31.656Z,59.80
2023-01-17T08:29:33.787Z,59.55
2023-01-17T08:31:36.767Z,59.33
2023-01-17T08:33:38.959Z,59.51
2023-01-17T08:35:41.618Z,59.08
2023-01-17T08:37:43.538Z,59.70
2023-01-17T08:39:45.728Z,59.88
2023-01-17T08:41:48.125Z,59.89
2023-01-17T08:43:51.760Z,59.97
2023-01-17T08:45:56.224Z,59.95
2023-01-17T08:47:59.441Z,59.98
2023-01-17T08:50:01.619Z,59.80
2023-01-17T08:52:03.743Z,59.99
2023-01-17T08:54:05.919Z,59.88
2023-01-17T08:56:08.404Z,60.47
2023-01-17T08:58:10.516Z,60.52
2023-01-17T09:00:13.145Z,60.46
2023-01-17T09:02:16.408Z,60.88
2023-01-17T09:04:18.989Z,60.57
2023-01-17T09:06:21.679Z,61.02
2023-01-17T09:08:23.660Z,60.62
2023-01-17T09:10:25.814Z,60.79
2023-01-17T09:12:32.714Z,60.55
2023-01-17T09:14:35.460Z,60.58
2023-01-17T09:16:37.638Z,60.33
2023-01-17T09:18:39.738Z,60.28
2023-01-17T09:20:41.779Z,60.76
2023-01-17T09:22:45.952Z,60.51
2023-01-17T09:24:48.471Z,60.28
2023-01-17T09:26:50.591Z,60.66
2023-01-17T09:28:53.091Z,60.43
2023-01-17T09:30:55.389Z,60.28
2023-01-17T09:32:57.519Z,60.26
2023-01-17T09:35:01.050Z,60.86
2023-01-17T09:37:03.327Z,60.57
2023-01-17T09:39:05.610Z,60.73
2023-01-17T09:41:22.990Z,60.49
2023-01-17T09:44:01.483Z,60.72
2023-01-17T09:46:04.769Z,60.44
2023-01-17T09:48:14.812Z,60.44
2023-01-17T09:50:34.441Z,60.69
2023-01-17T09:52:36.559Z,60.32
2023-01-17T09:54:41.798Z,60.30
2023-01-17T09:56:49.663Z,60.49
2023-01-17T09:59:05.703Z,60.65
2023-01-17T10:01:45.059Z,61.00
2023-01-17T10:04:16.057Z,60.91
2023-01-17T10:06:55.028Z,61.59
2023-01-17T10:09:18.470Z,62.21
2023-01-17T10:11:47.224Z,62.23
2023-01-17T10:13:49.498Z,62.10
2023-01-17T10:16:17.568Z,62.69
2023-01-17T10:18:47.965Z,62.44
2023-01-17T10:20:54.853Z,62.17
2023-01-17T10:22:59.798Z,62.30
2023-01-17T10:25:13.420Z,62.37
2023-01-17T10:27:37.433Z,62.97
2023-01-17T10:29:41.551Z,62.80
2023-01-17T10:31:55.941Z,63.09
2023-01-17T10:34:04.584Z,62.97
2023-01-17T10:36:15.447Z,63.62
2023-01-17T10:38:18.466Z,63.51
2023-01-17T10:40:30.132Z,63.64
2023-01-17T10:42:57.797Z,63.88
2023-01-17T10:45:05.870Z,62.72
2023-01-17T10:47:19.827Z,62.35
2023-01-17T10:49:25.013Z,62.20
2023-01-17T10:51:44.902Z,61.78
2023-01-17T10:54:01.663Z,62.43
2023-01-17T10:56:04.962Z,62.69
2023-01-17T10:58:12.761Z,63.34
2023-01-17T11:00:25.707Z,62.48
2023-01-17T11:02:35.980Z,62.60
2023-01-17T11:04:41.351Z,62.51
2023-01-17T11:06:57.842Z,62.76
2023-01-17T11:09:07.103Z,62.23
2023-01-17T11:11:09.911Z,61.44
2023-01-17T11:13:21.097Z,61.43
2023-01-17T11:15:26.121Z,61.22
2023-01-17T11:17:29.893Z,60.76
2023-01-17T11:19:36.337Z,60.93
2023-01-17T11:21:40.418Z,61.16
2023-01-17T11:23:49.671Z,61.41
2023-01-17T11:26:06.413Z,62.03
2023-01-17T11:28:23.404Z,61.87
2023-01-17T11:30:29.521Z,61.92
2023-01-17T11:32:34.003Z,62.54
2023-01-17T11:34:36.135Z,62.11
2023-01-17T11:36:38.220Z,61.81
2023-01-17T11:38:41.745Z,62.34
2023-01-17T11:40:48.987Z,62.13
2023-01-17T11:43:23.057Z,62.29
2023-01-17T11:45:30.884Z,61.92
2023-01-17T11:47:32.797Z,62.44
2023-01-17T11:49:34.946Z,61.74
2023-01-17T11:51:42.365Z,62.17
2023-01-17T11:53:48.281Z,61.81
2023-01-17T11:55:58.360Z,61.83
2023-01-17T11:58:00.761Z,61.65
2023-01-17T12:00:33.354Z,61.75
2023-01-17T12:03:00.152Z,61.78
2023-01-17T12:05:18.477Z,61.74
2023-01-17T12:07:20.853Z,61.48
2023-01-17T12:09:35.240Z,61.70
2023-01-17T12:12:04.439Z,61.62
2023-01-17T12:14:20.163Z,61.39
2023-01-17T12:16:42.367Z,61.35
2023-01-17T12:19:07.515Z,61.44
2023-01-17T12:21:16.426Z,61.41
2023-01-17T12:23:40.678Z,61.14
2023-01-17T12:26:24.035Z,61.09
2023-01-17T12:28:54.539Z,61.16
2023-01-17T12:31:18.652Z,60.96
2023-01-17T12:33:39.388Z,60.71
2023-01-17T12:35:53.664Z,60.90
2023-01-17T12:38:05.994Z,60.92
2023-01-17T12:40:17.049Z,60.91
2023-01-17T12:42:24.408Z,60.99
2023-01-17T12:44:52.958Z,61.18
2023-01-17T12:47:02.857Z,61.22
2023-01-17T12:49:21.620Z,61.45
2023-01-17T12:51:29.807Z,61.03
2023-01-17T12:53:56.611Z,61.28
2023-01-17T12:56:26.982Z,61.30
2023-01-17T12:58:39.868Z,60.97
2023-01-17T13:00:44.967Z,60.90
2023-01-17T13:03:15.313Z,60.67
2023-01-17T13:05:38.386Z,60.36
2023-01-17T13:07:43.195Z,60.48
2023-01-17T13:09:52.958Z,60.31
2023-01-17T13:12:13.256Z,60.54
2023-01-17T13:14:15.649Z,60.29
2023-01-17T13:16:51.492Z,60.41
2023-01-17T13:18:55.308Z,60.36
2023-01-17T13:21:25.301Z,60.04
2023-01-17T13:23:45.098Z,59.97
2023-01-17T13:25:50.916Z,59.71
2023-01-17T13:28:22.366Z,59.71
2023-01-17T13:31:05.073Z,59.69
2023-01-17T13:33:25.566Z,59.56
2023-01-17T13:35:51.321Z,58.49
2023-01-17T13:38:14.750Z,59.00
2023-01-17T13:40:32.944Z,59.11
2023-01-17T13:42:49.724Z,59.17
2023-01-17T13:44:52.652Z,58.61
2023-01-17T13:47:04.774Z,58.71
2023-01-17T13:49:26.856Z,58.29
2023-01-17T13:52:10.908Z,58.23
2023-01-17T13:54:32.616Z,58.67
2023-01-17T13:56:35.744Z,58.74
2023-01-17T13:58:50.449Z,58.32
2023-01-17T14:00:54.923Z,58.54
2023-01-17T14:02:57.063Z,58.47
2023-01-17T14:05:18.229Z,57.95
2023-01-17T14:07:26.425Z,58.10
2023-01-17T14:09:30.915Z,57.83
2023-01-17T14:11:35.719Z,57.75
2023-01-17T14:13:39.220Z,57.31
2023-01-17T14:15:50.053Z,57.18
2023-01-17T14:18:03.675Z,57.24
2023-01-17T14:20:05.522Z,57.33
2023-01-17T14:22:19.786Z,56.78
2023-01-17T14:24:22.077Z,57.21
2023-01-17T14:26:45.278Z,56.26
2023-01-17T14:28:47.294Z,57.06
2023-01-17T14:30:54.445Z,57.00
2023-01-17T14:33:00.988Z,56.65
2023-01-17T14:35:04.773Z,56.77
2023-01-17T14:37:17.691Z,55.88
2023-01-17T14:39:24.143Z,56.15
2023-01-17T14:41:28.956Z,56.61
2023-01-17T14:43:34.900Z,55.82
2023-01-17T14:45:37.996Z,56.21
2023-01-17T14:47:40.259Z,55.85
2023-01-17T14:49:42.508Z,56.05
2023-01-17T14:51:57.794Z,56.27
2023-01-17T14:54:07.403Z,56.24
2023-01-17T14:56:20.041Z,56.07
2023-01-17T14:58:26.426Z,56.53
2023-01-17T15:00:35.151Z,56.74
2023-01-17T15:02:42.241Z,56.56
2023-01-17T15:04:45.396Z,57.10
2023-01-17T15:06:48.219Z,57.23
2023-01-17T15:08:54.276Z,57.38
2023-01-17T15:11:00.387Z,57.32
2023-01-17T15:13:09.184Z,57.26
2023-01-17T15:15:31.870Z,57.56
2023-01-17T15:17:34.062Z,57.61
2023-01-17T15:19:44.043Z,58.05
2023-01-17T15:21:54.211Z,58.08
2023-01-17T15:24:03.489Z,57.67
2023-01-17T15:26:10.491Z,58.11
2023-01-17T15:28:13.967Z,57.97
2023-01-17T15:30:16.346Z,58.37
2023-01-17T15:32:24.441Z,58.50
2023-01-17T15:34:27.914Z,58.55
2023-01-17T15:36:34.389Z,58.63
2023-01-17T15:38:39.556Z,58.37
2023-01-17T15:40:45.808Z,58.23
2023-01-17T15:42:51.016Z,58.28
2023-01-17T15:44:55.971Z,58.30
2023-01-17T15:46:58.459Z,58.37
2023-01-17T15:49:29.245Z,58.07
2023-01-17T15:51:39.186Z,58.19
2023-01-17T15:53:42.946Z,58.15
2023-01-17T15:55:48.086Z,58.16
2023-01-17T15:57:50.473Z,58.11
2023-01-17T15:59:56.168Z,57.94
2023-01-17T16:01:58.747Z,58.24
2023-01-17T16:04:00.744Z,58.03
2023-01-17T16:06:04.567Z,57.96
2023-01-17T16:08:06.384Z,57.73
2023-01-17T16:10:15.889Z,57.76
2023-01-17T16:12:18.022Z,58.09
2023-01-17T16:14:19.993Z,57.60
2023-01-17T16:16:25.970Z,57.13
2023-01-17T16:18:28.159Z,57.23
2023-01-17T16:20:59.502Z,56.76
2023-01-17T16:23:02.106Z,56.80
2023-01-17T16:25:14.559Z,56.49
2023-01-17T16:27:16.669Z,56.80
2023-01-17T16:29:18.528Z,56.96
2023-01-17T16:31:20.671Z,56.53
2023-01-17T16:33:22.763Z,56.29
2023-01-17T16:35:28.476Z,56.63
2023-01-17T16:37:30.410Z,56.66
2023-01-17T16:39:32.562Z,56.23
2023-01-17T16:41:34.887Z,56.78
2023-01-17T16:43:36.846Z,56.28
2023-01-17T16:45:47.680Z,56.26
2023-01-17T16:47:49.941Z,56.45
2023-01-17T16:49:52.072Z,57.01
2023-01-17T16:51:54.441Z,57.02
2023-01-17T16:53:56.461Z,57.19
2023-01-17T16:56:05.702Z,56.97
2023-01-17T16:58:07.903Z,57.12
2023-01-17T17:00:12.233Z,57.39
2023-01-17T17:02:15.351Z,57.38
2023-01-17T17:04:17.482Z,57.43
2023-01-17T17:06:19.973Z,57.22
2023-01-17T17:08:22.482Z,57.05
2023-01-17T17:10:25.409Z,57.13
2023-01-17T17:12:27.303Z,56.96
2023-01-17T17:14:29.519Z,56.91
2023-01-17T17:16:31.587Z,56.88
2023-01-17T17:18:33.742Z,57.18
2023-01-17T17:20:35.848Z,57.19
2023-01-17T17:22:38.241Z,57.25
2023-01-17T17:24:40.153Z,57.36
2023-01-17T17:26:42.263Z,57.52
2023-01-17T17:28:44.249Z,57.37
2023-01-17T17:30:46.289Z,57.50
2023-01-17T17:32:48.359Z,57.22
2023-01-17T17:34:53.017Z,57.22
2023-01-17T17:36:55.466Z,57.48
2023-01-17T17:38:58.487Z,57.32
2023-01-17T17:41:10.002Z,57.04
2023-01-17T17:43:12.055Z,57.29
2023-01-17T17:45:14.037Z,57.58
2023-01-17T17:47:16.473Z,57.64
2023-01-17T17:49:18.589Z,57.98
2023-01-17T17:51:30.338Z,57.92
2023-01-17T17:53:32.877Z,57.88
2023-01-17T17:55:36.474Z,57.84
2023-01-17T17:57:38.441Z,58.17
2023-01-17T17:59:40.607Z,58.29
2023-01-17T18:01:42.638Z,58.04
2023-01-17T18:03:45.071Z,58.11
2023-01-17T18:05:47.060Z,58.52
2023-01-17T18:07:50.982Z,58.27
2023-01-17T18:09:54.189Z,59.22
2023-01-17T18:11:57.789Z,58.95
2023-01-17T18:14:02.225Z,59.39
2023-01-17T18:16:07.930Z,59.46
2023-01-17T18:18:10.028Z,59.68
2023-01-17T18:20:12.225Z,59.96
2023-01-17T18:22:15.171Z,59.37
2023-01-17T18:24:19.288Z,60.01
2023-01-17T18:26:25.418Z,59.63
2023-01-17T18:28:30.434Z,60.04
2023-01-17T18:30:38.535Z,60.65
2023-01-17T18:32:42.022Z,60.99
2023-01-17T18:34:44.137Z,60.99
2023-01-17T18:36:46.581Z,60.74
2023-01-17T18:38:51.156Z,61.43
2023-01-17T18:40:53.250Z,61.69
2023-01-17T18:42:55.693Z,61.24
2023-01-17T18:44:58.080Z,61.40
2023-01-17T18:47:04.709Z,61.94
2023-01-17T18:49:07.384Z,62.24
2023-01-17T18:51:12.447Z,61.39
2023-01-17T18:53:14.537Z,61.93
2023-01-17T18:55:16.902Z,61.84
2023-01-17T18:57:18.943Z,61.60
2023-01-17T18:59:23.555Z,61.56
2023-01-17T19:01:28.592Z,62.23
2023-01-17T19:03:31.626Z,62.26
2023-01-17T19:05:36.238Z,61.74
2023-01-17T19:07:38.134Z,61.44
2023-01-17T19:09:40.128Z,61.66
2023-01-17T19:11:44.702Z,61.90
2023-01-17T19:13:48.558Z,61.97
2023-01-17T19:15:50.544Z,62.19
2023-01-17T19:17:52.487Z,62.26
2023-01-17T19:19:56.553Z,62.88
2023-01-17T19:21:59.056Z,62.06
2023-01-17T19:24:01.596Z,62.34
2023-01-17T19:26:05.159Z,62.44
2023-01-17T19:28:08.491Z,62.62
2023-01-17T19:30:11.307Z,62.57
2023-01-17T19:32:13.274Z,63.02
2023-01-17T19:34:16.150Z,62.69
2023-01-17T19:36:20.928Z,63.03
2023-01-17T19:38:22.888Z,64.15
2023-01-17T19:40:25.928Z,63.41
2023-01-17T19:42:28.757Z,63.70
2023-01-17T19:44:30.807Z,64.10
2023-01-17T19:46:33.328Z,63.74
2023-01-17T19:48:37.460Z,63.79
2023-01-17T19:50:39.374Z,64.02
2023-01-17T19:52:42.257Z,64.14
2023-01-17T19:54:44.281Z,63.91
2023-01-17T19:56:46.114Z,64.37
2023-01-17T19:58:48.451Z,64.71
2023-01-17T20:00:52.264Z,64.78
2023-01-17T20:02:54.363Z,65.09
2023-01-17T20:04:56.267Z,66.00
2023-01-17T20:06:58.254Z,65.42
2023-01-17T20:09:00.107Z,65.71
2023-01-17T20:11:07.503Z,65.88
2023-01-17T20:13:09.299Z,64.69
2023-01-17T20:15:11.180Z,63.77
2023-01-17T20:17:13.056Z,64.17
2023-01-17T20:19:15.437Z,63.58
2023-01-17T20:21:22.733Z,63.45
2023-01-17T20:23:24.671Z,63.61
2023-01-17T20:25:27.809Z,63.67
2023-01-17T20:27:29.565Z,64.00
2023-01-17T20:29:31.340Z,63.55
2023-01-17T20:31:33.169Z,63.44
2023-01-17T20:33:36.858Z,63.73
2023-01-17T20:35:38.791Z,63.42
2023-01-17T20:37:40.672Z,63.10
2023-01-17T20:39:42.446Z,62.68
2023-01-17T20:41:49.413Z,62.23
2023-01-17T20:43:55.952Z,62.08
2023-01-17T20:45:58.420Z,61.90
2023-01-17T20:48:00.786Z,61.34
2023-01-17T20:50:04.110Z,60.88
2023-01-17T20:52:06.408Z,61.33
2023-01-17T20:54:13.782Z,60.43
2023-01-17T20:56:15.797Z,60.19
2023-01-17T20:58:18.155Z,60.68
2023-01-17T21:00:20.496Z,60.28
2023-01-17T21:02:22.402Z,60.29
2023-01-17T21:04:26.071Z,59.91
2023-01-17T21:06:28.443Z,59.33
2023-01-17T21:08:31.890Z,59.37
2023-01-17T21:10:33.710Z,59.03
2023-01-17T21:12:35.690Z,59.21
2023-01-17T21:14:38.584Z,59.06
2023-01-17T21:16:40.544Z,59.22
2023-01-17T21:18:43.441Z,58.47
2023-01-17T21:20:45.995Z,58.53
2023-01-17T21:22:48.190Z,58.70
2023-01-17T21:24:50.144Z,57.89
2023-01-17T21:26:52.682Z,58.44
2023-01-17T21:28:55.360Z,58.03
2023-01-17T21:30:57.770Z,57.81
2023-01-17T21:32:59.901Z,57.57
2023-01-17T21:35:01.673Z,57.54
2023-01-17T21:37:03.542Z,57.59
2023-01-17T21:39:08.473Z,56.93
2023-01-17T21:41:10.296Z,56.38
2023-01-17T21:43:12.493Z,56.15
2023-01-17T21:45:14.339Z,56.62
2023-01-17T21:47:16.036Z,56.50
2023-01-17T21:49:19.133Z,56.12
2023-01-17T21:51:21.920Z,56.18
2023-01-17T21:53:23.693Z,55.64
2023-01-17T21:55:44.049Z,55.66
2023-01-17T21:58:04.475Z,55.50
2023-01-17T22:00:10.666Z,55.53
2023-01-17T22:02:17.371Z,55.40
2023-01-17T22:04:20.142Z,55.73
2023-01-17T22:06:24.461Z,55.57
2023-01-17T22:08:31.932Z,55.17
2023-01-17T22:10:44.704Z,55.42
2023-01-17T22:12:46.960Z,55.56
2023-01-17T22:14:49.401Z,54.96
2023-01-17T22:16:51.824Z,54.50
2023-01-17T22:18:53.962Z,54.72
2023-01-17T22:20:57.535Z,54.56
2023-01-17T22:23:00.417Z,54.70
2023-01-17T22:25:02.365Z,54.43
2023-01-17T22:27:04.532Z,54.73
2023-01-17T22:29:06.704Z,54.77
2023-01-17T22:31:23.830Z,54.12
2023-01-17T22:33:25.737Z,54.50
2023-01-17T22:35:27.784Z,54.52
2023-01-17T22:37:29.893Z,54.14
2023-01-17T22:39:31.967Z,54.22
2023-01-17T22:41:35.274Z,54.47
2023-01-17T22:43:39.456Z,54.32
2023-01-17T22:45:41.442Z,54.57
2023-01-17T22:47:43.579Z,54.03
2023-01-17T22:49:45.619Z,54.20
2023-01-17T22:51:47.583Z,54.19
2023-01-17T22:53:57.818Z,54.25
2023-01-17T22:56:05.334Z,54.70
2023-01-17T22:58:07.452Z,54.85
2023-01-17T23:00:14.626Z,55.29
2023-01-17T23:02:18.481Z,55.34
2023-01-17T23:04:20.643Z,55.61
2023-01-17T23:06:27.368Z,56.37
2023-01-17T23:08:29.777Z,56.80
2023-01-17T23:10:50.497Z,57.40
2023-01-17T23:12:52.420Z,58.33
2023-01-17T23:15:13.144Z,58.59
2023-01-17T23:17:44.449Z,59.20
2023-01-17T23:19:51.152Z,60.24
2023-01-17T23:22:14.757Z,60.22
2023-01-17T23:24:16.534Z,60.71
2023-01-17T23:26:18.241Z,60.58
2023-01-17T23:28:21.023Z,61.02
2023-01-17T23:30:35.464Z,61.85
2023-01-17T23:32:44.452Z,61.89
2023-01-17T23:34:47.914Z,61.39
2023-01-17T23:36:49.978Z,61.33
2023-01-17T23:38:51.803Z,61.20
2023-01-17T23:41:17.608Z,61.62
2023-01-17T23:43:25.095Z,62.18
2023-01-17T23:45:27.408Z,62.12
2023-01-17T23:47:29.175Z,62.29
2023-01-17T23:49:31.496Z,61.82
2023-01-17T23:51:33.253Z,62.22
2023-01-17T23:53:36.860Z,62.25
2023-01-17T23:55:40.797Z,62.86
2023-01-17T23:57:42.555Z,62.70
2023-01-17T23:59:44.949Z,62.72
